sensor_id;sensor_type;location;lat;lon;timestamp;P1;durP1;ratioP1;P2;durP2;ratioP2
7517;SDS011;3800;48.922;9.444;2023-03-01T00:00:12;18.97;;;13.10;;
7517;SDS011;3800;48.922;9.444;2023-03-01T00:02:40;17.30;;;13.40;;
7517;SDS011;3800;48.922;9.444;2023-03-01T00:05:08;17.40;;;12.50;;
7517;SDS011;3800;48.922;9.444;2023-03-01T00:07:35;18.63;;;13.43;;
7517;SDS011;3800;48.922;9.444;2023-03-01T00:10:03;17.40;;;13.40;;
7517;SDS011;3800;48.922;9.444;2023-03-01T00:12:31;17.90;;;13.73;;
7517;SDS011;3800;48.922;9.444;2023-03-01T00:14:58;19.00;;;13.77;;
7517;SDS011;3800;48.922;9.444;2023-03-01T00:17:27;14.77;;;12.07;;
7517;SDS011;3800;48.922;9.444;2023-03-01T00:19:54;16.43;;;12.30;;
7517;SDS011;3800;48.922;9.444;2023-03-01T00:22:21;18.23;;;13.20;;
7517;SDS011;3800;48.922;9.444;2023-03-01T00:24:49;20.03;;;12.80;;
7517;SDS011;3800;48.922;9.444;2023-03-01T00:27:16;18.10;;;13.27;;
7517;SDS011;3800;48.922;9.444;2023-03-01T00:29:44;18.40;;;13.60;;
7517;SDS011;3800;48.922;9.444;2023-03-01T00:32:12;18.00;;;12.60;;
7517;SDS011;3800;48.922;9.444;2023-03-01T00:34:39;16.77;;;13.77;;
7517;SDS011;3800;48.922;9.444;2023-03-01T00:37:07;16.77;;;13.03;;
7517;SDS011;3800;48.922;9.444;2023-03-01T00:39:35;16.57;;;12.47;;
7517;SDS011;3800;48.922;9.444;2023-03-01T00:42:02;16.23;;;12.93;;
7517;SDS011;3800;48.922;9.444;2023-03-01T00:44:30;17.13;;;12.97;;
7517;SDS011;3800;48.922;9.444;2023-03-01T00:46:58;18.97;;;13.93;;
7517;SDS011;3800;48.922;9.444;2023-03-01T00:49:26;18.27;;;13.27;;
7517;SDS011;3800;48.922;9.444;2023-03-01T00:51:54;18.83;;;14.43;;
7517;SDS011;3800;48.922;9.444;2023-03-01T00:54:22;17.30;;;13.60;;
7517;SDS011;3800;48.922;9.444;2023-03-01T00:56:50;18.40;;;13.37;;
7517;SDS011;3800;48.922;9.444;2023-03-01T00:59:17;17.47;;;12.93;;
7517;SDS011;3800;48.922;9.444;2023-03-01T01:01:45;18.17;;;13.57;;
7517;SDS011;3800;48.922;9.444;2023-03-01T01:04:13;17.77;;;14.17;;
7517;SDS011;3800;48.922;9.444;2023-03-01T01:06:42;18.03;;;13.63;;
7517;SDS011;3800;48.922;9.444;2023-03-01T01:09:11;19.90;;;14.13;;
7517;SDS011;3800;48.922;9.444;2023-03-01T01:11:37;18.60;;;13.60;;
7517;SDS011;3800;48.922;9.444;2023-03-01T01:14:05;15.70;;;12.50;;
7517;SDS011;3800;48.922;9.444;2023-03-01T01:16:33;17.67;;;13.67;;
7517;SDS011;3800;48.922;9.444;2023-03-01T01:19:01;18.60;;;13.70;;
7517;SDS011;3800;48.922;9.444;2023-03-01T01:21:28;17.50;;;13.90;;
7517;SDS011;3800;48.922;9.444;2023-03-01T01:23:56;15.90;;;13.57;;
7517;SDS011;3800;48.922;9.444;2023-03-01T01:26:26;20.80;;;13.97;;
7517;SDS011;3800;48.922;9.444;2023-03-01T01:28:53;18.10;;;13.40;;
7517;SDS011;3800;48.922;9.444;2023-03-01T01:31:21;17.00;;;13.57;;
7517;SDS011;3800;48.922;9.444;2023-03-01T01:33:48;19.03;;;13.47;;
7517;SDS011;3800;48.922;9.444;2023-03-01T01:36:16;16.70;;;14.10;;
7517;SDS011;3800;48.922;9.444;2023-03-01T01:38:43;18.17;;;13.33;;
7517;SDS011;3800;48.922;9.444;2023-03-01T01:41:11;18.73;;;13.90;;
7517;SDS011;3800;48.922;9.444;2023-03-01T01:43:39;17.63;;;13.97;;
7517;SDS011;3800;48.922;9.444;2023-03-01T01:46:14;17.73;;;13.87;;
7517;SDS011;3800;48.922;9.444;2023-03-01T01:48:42;16.37;;;13.30;;
7517;SDS011;3800;48.922;9.444;2023-03-01T01:51:12;18.63;;;13.77;;
7517;SDS011;3800;48.922;9.444;2023-03-01T01:53:37;17.17;;;13.23;;
7517;SDS011;3800;48.922;9.444;2023-03-01T01:56:06;19.13;;;14.53;;
7517;SDS011;3800;48.922;9.444;2023-03-01T01:58:33;23.03;;;14.47;;
7517;SDS011;3800;48.922;9.444;2023-03-01T02:01:01;21.63;;;14.70;;
7517;SDS011;3800;48.922;9.444;2023-03-01T02:03:30;17.43;;;13.73;;
7517;SDS011;3800;48.922;9.444;2023-03-01T02:06:00;20.67;;;15.03;;
7517;SDS011;3800;48.922;9.444;2023-03-01T02:08:31;18.03;;;14.77;;
7517;SDS011;3800;48.922;9.444;2023-03-01T02:10:58;18.80;;;14.33;;
7517;SDS011;3800;48.922;9.444;2023-03-01T02:13:27;20.40;;;15.43;;
7517;SDS011;3800;48.922;9.444;2023-03-01T02:15:54;20.27;;;14.13;;
7517;SDS011;3800;48.922;9.444;2023-03-01T02:18:22;20.70;;;14.50;;
7517;SDS011;3800;48.922;9.444;2023-03-01T02:20:54;24.20;;;14.93;;
7517;SDS011;3800;48.922;9.444;2023-03-01T02:23:17;19.67;;;14.37;;
7517;SDS011;3800;48.922;9.444;2023-03-01T02:25:57;18.93;;;13.97;;
7517;SDS011;3800;48.922;9.444;2023-03-01T02:28:30;19.20;;;14.40;;
7517;SDS011;3800;48.922;9.444;2023-03-01T02:30:59;21.87;;;15.53;;
7517;SDS011;3800;48.922;9.444;2023-03-01T02:33:32;20.37;;;14.90;;
7517;SDS011;3800;48.922;9.444;2023-03-01T02:36:00;20.63;;;14.93;;
7517;SDS011;3800;48.922;9.444;2023-03-01T02:38:28;18.70;;;13.33;;
7517;SDS011;3800;48.922;9.444;2023-03-01T02:40:55;17.67;;;13.30;;
7517;SDS011;3800;48.922;9.444;2023-03-01T02:43:24;18.50;;;14.60;;
7517;SDS011;3800;48.922;9.444;2023-03-01T02:45:51;19.90;;;15.43;;
7517;SDS011;3800;48.922;9.444;2023-03-01T02:48:19;18.97;;;15.07;;
7517;SDS011;3800;48.922;9.444;2023-03-01T02:53:33;18.33;;;14.43;;
7517;SDS011;3800;48.922;9.444;2023-03-01T02:55:59;17.93;;;14.40;;
7517;SDS011;3800;48.922;9.444;2023-03-01T02:58:26;21.70;;;14.60;;
7517;SDS011;3800;48.922;9.444;2023-03-01T03:00:54;20.67;;;15.20;;
7517;SDS011;3800;48.922;9.444;2023-03-01T03:03:22;18.13;;;14.17;;
7517;SDS011;3800;48.922;9.444;2023-03-01T03:05:50;19.37;;;14.77;;
7517;SDS011;3800;48.922;9.444;2023-03-01T03:08:18;19.00;;;14.63;;
7517;SDS011;3800;48.922;9.444;2023-03-01T03:10:46;20.53;;;14.87;;
7517;SDS011;3800;48.922;9.444;2023-03-01T03:13:14;19.33;;;14.43;;
7517;SDS011;3800;48.922;9.444;2023-03-01T03:15:42;18.87;;;14.97;;
7517;SDS011;3800;48.922;9.444;2023-03-01T03:18:10;18.23;;;14.43;;
7517;SDS011;3800;48.922;9.444;2023-03-01T03:20:38;18.43;;;14.93;;
7517;SDS011;3800;48.922;9.444;2023-03-01T03:23:05;19.43;;;14.80;;
7517;SDS011;3800;48.922;9.444;2023-03-01T03:25:33;21.63;;;15.27;;
7517;SDS011;3800;48.922;9.444;2023-03-01T03:28:01;20.07;;;14.40;;
7517;SDS011;3800;48.922;9.444;2023-03-01T03:30:31;21.17;;;15.07;;
7517;SDS011;3800;48.922;9.444;2023-03-01T03:32:57;21.17;;;15.00;;
7517;SDS011;3800;48.922;9.444;2023-03-01T03:35:27;20.20;;;14.70;;
7517;SDS011;3800;48.922;9.444;2023-03-01T03:37:53;19.67;;;15.13;;
7517;SDS011;3800;48.922;9.444;2023-03-01T03:40:26;18.23;;;14.63;;
7517;SDS011;3800;48.922;9.444;2023-03-01T03:42:54;20.83;;;14.90;;
7517;SDS011;3800;48.922;9.444;2023-03-01T03:45:21;20.30;;;15.17;;
7517;SDS011;3800;48.922;9.444;2023-03-01T03:47:49;18.03;;;14.00;;
7517;SDS011;3800;48.922;9.444;2023-03-01T03:50:17;20.63;;;15.67;;
7517;SDS011;3800;48.922;9.444;2023-03-01T03:52:44;20.03;;;14.37;;
7517;SDS011;3800;48.922;9.444;2023-03-01T03:55:12;18.40;;;15.00;;
7517;SDS011;3800;48.922;9.444;2023-03-01T03:57:40;19.00;;;14.77;;
7517;SDS011;3800;48.922;9.444;2023-03-01T04:00:10;19.23;;;15.30;;
7517;SDS011;3800;48.922;9.444;2023-03-01T04:02:37;21.57;;;15.73;;
7517;SDS011;3800;48.922;9.444;2023-03-01T04:05:05;19.00;;;14.60;;
7517;SDS011;3800;48.922;9.444;2023-03-01T04:07:34;18.87;;;14.87;;
7517;SDS011;3800;48.922;9.444;2023-03-01T04:10:02;21.40;;;15.63;;
7517;SDS011;3800;48.922;9.444;2023-03-01T04:12:29;19.77;;;15.27;;
7517;SDS011;3800;48.922;9.444;2023-03-01T04:14:57;19.80;;;15.10;;
7517;SDS011;3800;48.922;9.444;2023-03-01T04:17:25;20.13;;;15.37;;
7517;SDS011;3800;48.922;9.444;2023-03-01T04:19:52;20.63;;;15.77;;
7517;SDS011;3800;48.922;9.444;2023-03-01T04:22:20;20.17;;;14.83;;
7517;SDS011;3800;48.922;9.444;2023-03-01T04:24:48;19.20;;;15.50;;
7517;SDS011;3800;48.922;9.444;2023-03-01T04:27:15;22.37;;;15.80;;
7517;SDS011;3800;48.922;9.444;2023-03-01T04:29:43;18.23;;;15.17;;
7517;SDS011;3800;48.922;9.444;2023-03-01T04:32:11;21.20;;;15.27;;
7517;SDS011;3800;48.922;9.444;2023-03-01T04:34:38;21.83;;;15.43;;
7517;SDS011;3800;48.922;9.444;2023-03-01T04:37:06;21.10;;;14.23;;
7517;SDS011;3800;48.922;9.444;2023-03-01T04:39:33;18.23;;;14.37;;
7517;SDS011;3800;48.922;9.444;2023-03-01T04:42:02;19.70;;;15.93;;
7517;SDS011;3800;48.922;9.444;2023-03-01T04:44:30;20.23;;;14.70;;
7517;SDS011;3800;48.922;9.444;2023-03-01T04:46:57;17.33;;;14.53;;
7517;SDS011;3800;48.922;9.444;2023-03-01T04:49:25;19.83;;;15.67;;
7517;SDS011;3800;48.922;9.444;2023-03-01T04:51:52;19.20;;;14.93;;
7517;SDS011;3800;48.922;9.444;2023-03-01T04:54:21;20.50;;;15.33;;
7517;SDS011;3800;48.922;9.444;2023-03-01T04:56:48;20.17;;;15.47;;
7517;SDS011;3800;48.922;9.444;2023-03-01T04:59:17;20.23;;;14.97;;
7517;SDS011;3800;48.922;9.444;2023-03-01T05:01:45;20.03;;;15.83;;
7517;SDS011;3800;48.922;9.444;2023-03-01T05:04:12;19.30;;;15.43;;
7517;SDS011;3800;48.922;9.444;2023-03-01T05:06:40;19.00;;;14.77;;
7517;SDS011;3800;48.922;9.444;2023-03-01T05:09:07;22.17;;;15.73;;
7517;SDS011;3800;48.922;9.444;2023-03-01T05:11:35;20.60;;;14.57;;
7517;SDS011;3800;48.922;9.444;2023-03-01T05:14:03;21.50;;;14.70;;
7517;SDS011;3800;48.922;9.444;2023-03-01T05:16:32;20.97;;;16.00;;
7517;SDS011;3800;48.922;9.444;2023-03-01T05:18:59;21.20;;;16.07;;
7517;SDS011;3800;48.922;9.444;2023-03-01T05:21:27;19.37;;;15.37;;
7517;SDS011;3800;48.922;9.444;2023-03-01T05:23:55;22.07;;;15.90;;
7517;SDS011;3800;48.922;9.444;2023-03-01T05:26:22;23.17;;;17.43;;
7517;SDS011;3800;48.922;9.444;2023-03-01T05:28:50;24.80;;;16.53;;
7517;SDS011;3800;48.922;9.444;2023-03-01T05:31:17;20.60;;;15.50;;
7517;SDS011;3800;48.922;9.444;2023-03-01T05:33:46;22.57;;;16.20;;
7517;SDS011;3800;48.922;9.444;2023-03-01T05:36:14;21.30;;;16.27;;
7517;SDS011;3800;48.922;9.444;2023-03-01T05:38:42;21.17;;;16.27;;
7517;SDS011;3800;48.922;9.444;2023-03-01T05:41:13;21.47;;;16.03;;
7517;SDS011;3800;48.922;9.444;2023-03-01T05:43:40;20.13;;;14.83;;
7517;SDS011;3800;48.922;9.444;2023-03-01T05:46:07;20.73;;;15.40;;
7517;SDS011;3800;48.922;9.444;2023-03-01T05:48:38;20.73;;;16.00;;
7517;SDS011;3800;48.922;9.444;2023-03-01T05:51:06;20.90;;;16.30;;
7517;SDS011;3800;48.922;9.444;2023-03-01T05:53:34;21.73;;;15.87;;
7517;SDS011;3800;48.922;9.444;2023-03-01T05:56:03;19.13;;;15.57;;
7517;SDS011;3800;48.922;9.444;2023-03-01T05:58:31;20.90;;;15.80;;
7517;SDS011;3800;48.922;9.444;2023-03-01T06:00:58;21.23;;;15.60;;
7517;SDS011;3800;48.922;9.444;2023-03-01T06:03:26;24.33;;;16.07;;
7517;SDS011;3800;48.922;9.444;2023-03-01T06:05:56;20.93;;;16.40;;
7517;SDS011;3800;48.922;9.444;2023-03-01T06:08:23;21.83;;;16.20;;
7517;SDS011;3800;48.922;9.444;2023-03-01T06:10:50;20.03;;;16.47;;
7517;SDS011;3800;48.922;9.444;2023-03-01T06:13:18;24.80;;;16.53;;
7517;SDS011;3800;48.922;9.444;2023-03-01T06:15:46;25.00;;;16.57;;
7517;SDS011;3800;48.922;9.444;2023-03-01T06:18:13;21.03;;;15.73;;
7517;SDS011;3800;48.922;9.444;2023-03-01T06:20:41;22.97;;;16.17;;
7517;SDS011;3800;48.922;9.444;2023-03-01T06:23:09;22.97;;;16.90;;
7517;SDS011;3800;48.922;9.444;2023-03-01T06:25:38;21.13;;;15.60;;
7517;SDS011;3800;48.922;9.444;2023-03-01T06:28:05;20.80;;;16.03;;
7517;SDS011;3800;48.922;9.444;2023-03-01T06:30:34;21.53;;;15.27;;
7517;SDS011;3800;48.922;9.444;2023-03-01T06:33:01;21.63;;;16.17;;
7517;SDS011;3800;48.922;9.444;2023-03-01T06:35:30;24.07;;;15.77;;
7517;SDS011;3800;48.922;9.444;2023-03-01T06:37:59;21.77;;;16.17;;
7517;SDS011;3800;48.922;9.444;2023-03-01T06:40:26;20.57;;;16.30;;
7517;SDS011;3800;48.922;9.444;2023-03-01T06:42:53;22.50;;;16.47;;
7517;SDS011;3800;48.922;9.444;2023-03-01T06:45:21;21.87;;;16.33;;
7517;SDS011;3800;48.922;9.444;2023-03-01T06:47:49;23.10;;;16.63;;
7517;SDS011;3800;48.922;9.444;2023-03-01T06:50:18;24.20;;;17.03;;
7517;SDS011;3800;48.922;9.444;2023-03-01T06:52:46;23.43;;;16.47;;
7517;SDS011;3800;48.922;9.444;2023-03-01T06:55:14;21.93;;;15.73;;
7517;SDS011;3800;48.922;9.444;2023-03-01T06:57:41;21.20;;;15.93;;
7517;SDS011;3800;48.922;9.444;2023-03-01T07:00:09;22.73;;;17.07;;
7517;SDS011;3800;48.922;9.444;2023-03-01T07:02:38;20.33;;;16.77;;
7517;SDS011;3800;48.922;9.444;2023-03-01T07:05:06;25.40;;;16.00;;
7517;SDS011;3800;48.922;9.444;2023-03-01T07:07:34;22.17;;;15.93;;
7517;SDS011;3800;48.922;9.444;2023-03-01T07:10:02;21.23;;;16.13;;
7517;SDS011;3800;48.922;9.444;2023-03-01T07:12:30;21.73;;;15.57;;
7517;SDS011;3800;48.922;9.444;2023-03-01T07:14:57;22.00;;;17.50;;
7517;SDS011;3800;48.922;9.444;2023-03-01T07:17:25;23.07;;;17.97;;
7517;SDS011;3800;48.922;9.444;2023-03-01T07:19:53;23.27;;;16.53;;
7517;SDS011;3800;48.922;9.444;2023-03-01T07:22:20;25.93;;;17.47;;
7517;SDS011;3800;48.922;9.444;2023-03-01T07:24:48;24.07;;;17.30;;
7517;SDS011;3800;48.922;9.444;2023-03-01T07:27:16;21.97;;;16.93;;
7517;SDS011;3800;48.922;9.444;2023-03-01T07:29:45;22.60;;;16.97;;
7517;SDS011;3800;48.922;9.444;2023-03-01T07:32:12;23.13;;;17.33;;
7517;SDS011;3800;48.922;9.444;2023-03-01T07:34:40;22.43;;;16.97;;
7517;SDS011;3800;48.922;9.444;2023-03-01T07:37:08;22.87;;;17.73;;
7517;SDS011;3800;48.922;9.444;2023-03-01T07:39:36;23.00;;;17.97;;
7517;SDS011;3800;48.922;9.444;2023-03-01T07:42:04;22.33;;;16.70;;
7517;SDS011;3800;48.922;9.444;2023-03-01T07:44:31;21.97;;;16.90;;
7517;SDS011;3800;48.922;9.444;2023-03-01T07:47:02;24.23;;;17.00;;
7517;SDS011;3800;48.922;9.444;2023-03-01T07:49:29;22.90;;;16.50;;
7517;SDS011;3800;48.922;9.444;2023-03-01T07:51:57;23.07;;;18.20;;
7517;SDS011;3800;48.922;9.444;2023-03-01T07:54:27;23.40;;;17.03;;
7517;SDS011;3800;48.922;9.444;2023-03-01T07:56:56;23.43;;;16.43;;
7517;SDS011;3800;48.922;9.444;2023-03-01T07:59:23;25.87;;;17.10;;
7517;SDS011;3800;48.922;9.444;2023-03-01T08:01:50;27.77;;;18.60;;
7517;SDS011;3800;48.922;9.444;2023-03-01T08:04:18;24.40;;;17.43;;
7517;SDS011;3800;48.922;9.444;2023-03-01T08:06:46;23.17;;;17.17;;
7517;SDS011;3800;48.922;9.444;2023-03-01T08:09:14;25.73;;;17.50;;
7517;SDS011;3800;48.922;9.444;2023-03-01T08:11:42;22.73;;;17.07;;
7517;SDS011;3800;48.922;9.444;2023-03-01T08:14:10;22.47;;;16.00;;
7517;SDS011;3800;48.922;9.444;2023-03-01T08:16:38;27.63;;;17.53;;
7517;SDS011;3800;48.922;9.444;2023-03-01T08:19:06;23.73;;;16.27;;
7517;SDS011;3800;48.922;9.444;2023-03-01T08:21:33;23.33;;;17.13;;
7517;SDS011;3800;48.922;9.444;2023-03-01T08:24:02;21.63;;;16.87;;
7517;SDS011;3800;48.922;9.444;2023-03-01T08:26:30;23.57;;;15.80;;
7517;SDS011;3800;48.922;9.444;2023-03-01T08:29:00;24.73;;;17.50;;
7517;SDS011;3800;48.922;9.444;2023-03-01T08:31:28;22.63;;;17.20;;
7517;SDS011;3800;48.922;9.444;2023-03-01T08:33:58;23.97;;;17.10;;
7517;SDS011;3800;48.922;9.444;2023-03-01T08:36:26;23.97;;;16.27;;
7517;SDS011;3800;48.922;9.444;2023-03-01T08:38:52;23.80;;;16.90;;
7517;SDS011;3800;48.922;9.444;2023-03-01T08:41:20;24.07;;;16.73;;
7517;SDS011;3800;48.922;9.444;2023-03-01T08:43:48;22.30;;;16.83;;
7517;SDS011;3800;48.922;9.444;2023-03-01T08:46:16;23.83;;;16.47;;
7517;SDS011;3800;48.922;9.444;2023-03-01T08:48:44;23.37;;;17.13;;
7517;SDS011;3800;48.922;9.444;2023-03-01T08:51:14;22.43;;;16.83;;
7517;SDS011;3800;48.922;9.444;2023-03-01T08:53:41;22.47;;;16.30;;
7517;SDS011;3800;48.922;9.444;2023-03-01T08:56:09;22.07;;;17.23;;
7517;SDS011;3800;48.922;9.444;2023-03-01T08:58:37;24.70;;;17.40;;
7517;SDS011;3800;48.922;9.444;2023-03-01T09:01:07;27.30;;;18.00;;
7517;SDS011;3800;48.922;9.444;2023-03-01T09:03:35;22.30;;;16.30;;
7517;SDS011;3800;48.922;9.444;2023-03-01T09:06:03;21.53;;;16.77;;
7517;SDS011;3800;48.922;9.444;2023-03-01T09:08:33;23.30;;;17.30;;
7517;SDS011;3800;48.922;9.444;2023-03-01T09:11:01;24.57;;;16.57;;
7517;SDS011;3800;48.922;9.444;2023-03-01T09:13:27;22.03;;;16.93;;
7517;SDS011;3800;48.922;9.444;2023-03-01T09:15:54;20.33;;;16.27;;
7517;SDS011;3800;48.922;9.444;2023-03-01T09:18:23;22.07;;;17.23;;
7517;SDS011;3800;48.922;9.444;2023-03-01T09:20:50;23.73;;;16.43;;
7517;SDS011;3800;48.922;9.444;2023-03-01T09:23:19;25.90;;;17.43;;
7517;SDS011;3800;48.922;9.444;2023-03-01T09:25:46;24.77;;;16.93;;
7517;SDS011;3800;48.922;9.444;2023-03-01T09:28:14;23.07;;;16.53;;
7517;SDS011;3800;48.922;9.444;2023-03-01T09:30:43;23.53;;;16.67;;
7517;SDS011;3800;48.922;9.444;2023-03-01T09:33:11;19.43;;;15.47;;
7517;SDS011;3800;48.922;9.444;2023-03-01T09:35:38;23.70;;;17.80;;
7517;SDS011;3800;48.922;9.444;2023-03-01T09:38:06;23.60;;;17.60;;
7517;SDS011;3800;48.922;9.444;2023-03-01T09:40:34;22.70;;;16.93;;
7517;SDS011;3800;48.922;9.444;2023-03-01T09:43:08;20.43;;;15.63;;
7517;SDS011;3800;48.922;9.444;2023-03-01T09:45:35;21.57;;;15.93;;
7517;SDS011;3800;48.922;9.444;2023-03-01T09:48:04;20.23;;;16.30;;
7517;SDS011;3800;48.922;9.444;2023-03-01T09:50:33;20.90;;;15.90;;
7517;SDS011;3800;48.922;9.444;2023-03-01T09:53:01;19.17;;;15.77;;
7517;SDS011;3800;48.922;9.444;2023-03-01T09:55:33;21.63;;;16.20;;
7517;SDS011;3800;48.922;9.444;2023-03-01T09:58:16;19.93;;;15.43;;
7517;SDS011;3800;48.922;9.444;2023-03-01T10:00:43;20.50;;;15.10;;
7517;SDS011;3800;48.922;9.444;2023-03-01T10:03:13;18.90;;;14.77;;
7517;SDS011;3800;48.922;9.444;2023-03-01T10:05:47;19.10;;;14.67;;
7517;SDS011;3800;48.922;9.444;2023-03-01T10:11:03;19.70;;;14.77;;
7517;SDS011;3800;48.922;9.444;2023-03-01T10:13:37;18.83;;;15.07;;
7517;SDS011;3800;48.922;9.444;2023-03-01T10:16:22;16.47;;;14.23;;
7517;SDS011;3800;48.922;9.444;2023-03-01T10:18:51;19.13;;;14.70;;
7517;SDS011;3800;48.922;9.444;2023-03-01T10:21:18;19.60;;;14.60;;
7517;SDS011;3800;48.922;9.444;2023-03-01T10:23:44;21.37;;;14.70;;
7517;SDS011;3800;48.922;9.444;2023-03-01T10:26:19;18.10;;;13.80;;
7517;SDS011;3800;48.922;9.444;2023-03-01T10:29:08;16.27;;;13.67;;
7517;SDS011;3800;48.922;9.444;2023-03-01T10:31:38;19.97;;;14.57;;
7517;SDS011;3800;48.922;9.444;2023-03-01T10:34:10;18.57;;;14.37;;
7517;SDS011;3800;48.922;9.444;2023-03-01T10:36:38;20.97;;;14.80;;
7517;SDS011;3800;48.922;9.444;2023-03-01T10:39:13;16.27;;;13.60;;
7517;SDS011;3800;48.922;9.444;2023-03-01T10:41:45;15.83;;;13.30;;
7517;SDS011;3800;48.922;9.444;2023-03-01T10:44:34;19.77;;;14.63;;
7517;SDS011;3800;48.922;9.444;2023-03-01T10:46:41;16.23;;;13.47;;
7517;SDS011;3800;48.922;9.444;2023-03-01T10:49:13;20.20;;;14.07;;
7517;SDS011;3800;48.922;9.444;2023-03-01T10:51:44;19.07;;;15.00;;
7517;SDS011;3800;48.922;9.444;2023-03-01T10:54:15;15.87;;;13.93;;
7517;SDS011;3800;48.922;9.444;2023-03-01T10:56:46;15.67;;;13.27;;
7517;SDS011;3800;48.922;9.444;2023-03-01T10:59:20;19.30;;;14.17;;
7517;SDS011;3800;48.922;9.444;2023-03-01T11:01:47;19.03;;;14.80;;
7517;SDS011;3800;48.922;9.444;2023-03-01T11:04:15;17.73;;;14.23;;
7517;SDS011;3800;48.922;9.444;2023-03-01T11:06:43;17.90;;;14.53;;
7517;SDS011;3800;48.922;9.444;2023-03-01T11:09:20;17.93;;;13.17;;
7517;SDS011;3800;48.922;9.444;2023-03-01T11:11:55;21.50;;;15.13;;
7517;SDS011;3800;48.922;9.444;2023-03-01T11:14:24;20.10;;;14.03;;
7517;SDS011;3800;48.922;9.444;2023-03-01T11:16:59;17.60;;;14.07;;
7517;SDS011;3800;48.922;9.444;2023-03-01T11:19:31;18.47;;;14.03;;
7517;SDS011;3800;48.922;9.444;2023-03-01T11:22:03;15.97;;;13.37;;
7517;SDS011;3800;48.922;9.444;2023-03-01T11:24:42;16.30;;;13.23;;
7517;SDS011;3800;48.922;9.444;2023-03-01T11:27:15;16.43;;;13.30;;
7517;SDS011;3800;48.922;9.444;2023-03-01T11:29:43;14.43;;;12.13;;
7517;SDS011;3800;48.922;9.444;2023-03-01T11:32:09;14.73;;;12.40;;
7517;SDS011;3800;48.922;9.444;2023-03-01T11:34:40;15.73;;;13.00;;
7517;SDS011;3800;48.922;9.444;2023-03-01T11:39:51;19.80;;;13.37;;
7517;SDS011;3800;48.922;9.444;2023-03-01T11:42:19;16.03;;;12.97;;
7517;SDS011;3800;48.922;9.444;2023-03-01T11:44:48;16.73;;;13.47;;
7517;SDS011;3800;48.922;9.444;2023-03-01T11:47:19;17.30;;;12.80;;
7517;SDS011;3800;48.922;9.444;2023-03-01T11:50:07;17.47;;;13.10;;
7517;SDS011;3800;48.922;9.444;2023-03-01T11:52:40;14.83;;;12.97;;
7517;SDS011;3800;48.922;9.444;2023-03-01T11:55:10;14.50;;;12.57;;
7517;SDS011;3800;48.922;9.444;2023-03-01T11:57:43;16.37;;;12.37;;
7517;SDS011;3800;48.922;9.444;2023-03-01T12:00:20;16.37;;;13.27;;
7517;SDS011;3800;48.922;9.444;2023-03-01T12:03:04;16.00;;;13.57;;
7517;SDS011;3800;48.922;9.444;2023-03-01T12:05:36;15.97;;;13.17;;
7517;SDS011;3800;48.922;9.444;2023-03-01T12:10:57;18.80;;;13.17;;
7517;SDS011;3800;48.922;9.444;2023-03-01T12:19:31;17.23;;;13.43;;
7517;SDS011;3800;48.922;9.444;2023-03-01T12:22:09;17.87;;;14.00;;
7517;SDS011;3800;48.922;9.444;2023-03-01T12:24:58;15.47;;;12.33;;
7517;SDS011;3800;48.922;9.444;2023-03-01T12:27:36;17.90;;;13.90;;
7517;SDS011;3800;48.922;9.444;2023-03-01T12:30:09;16.23;;;13.47;;
7517;SDS011;3800;48.922;9.444;2023-03-01T12:32:40;16.83;;;13.50;;
7517;SDS011;3800;48.922;9.444;2023-03-01T12:35:10;17.80;;;14.30;;
7517;SDS011;3800;48.922;9.444;2023-03-01T12:37:47;18.53;;;13.60;;
7517;SDS011;3800;48.922;9.444;2023-03-01T12:40:31;16.50;;;13.83;;
7517;SDS011;3800;48.922;9.444;2023-03-01T12:48:39;17.67;;;13.73;;
7517;SDS011;3800;48.922;9.444;2023-03-01T12:51:14;16.17;;;14.03;;
7517;SDS011;3800;48.922;9.444;2023-03-01T12:53:42;20.47;;;13.90;;
7517;SDS011;3800;48.922;9.444;2023-03-01T12:56:10;17.07;;;14.00;;
7517;SDS011;3800;48.922;9.444;2023-03-01T12:58:42;15.73;;;13.80;;
7517;SDS011;3800;48.922;9.444;2023-03-01T13:04:07;17.30;;;13.33;;
7517;SDS011;3800;48.922;9.444;2023-03-01T13:09:18;19.27;;;15.07;;
7517;SDS011;3800;48.922;9.444;2023-03-01T13:11:57;18.33;;;14.07;;
7517;SDS011;3800;48.922;9.444;2023-03-01T13:17:20;17.27;;;14.00;;
7517;SDS011;3800;48.922;9.444;2023-03-01T13:19:39;20.07;;;15.70;;
7517;SDS011;3800;48.922;9.444;2023-03-01T13:25:00;17.20;;;15.07;;
7517;SDS011;3800;48.922;9.444;2023-03-01T13:27:37;22.30;;;15.60;;
7517;SDS011;3800;48.922;9.444;2023-03-01T13:30:12;23.27;;;16.43;;
7517;SDS011;3800;48.922;9.444;2023-03-01T13:32:34;18.90;;;15.67;;
7517;SDS011;3800;48.922;9.444;2023-03-01T13:35:40;19.40;;;15.83;;
7517;SDS011;3800;48.922;9.444;2023-03-01T13:37:32;18.57;;;15.23;;
7517;SDS011;3800;48.922;9.444;2023-03-01T13:40:00;19.83;;;15.97;;
7517;SDS011;3800;48.922;9.444;2023-03-01T13:42:36;18.53;;;15.90;;
7517;SDS011;3800;48.922;9.444;2023-03-01T13:45:01;18.40;;;15.33;;
7517;SDS011;3800;48.922;9.444;2023-03-01T13:47:30;21.30;;;16.10;;
7517;SDS011;3800;48.922;9.444;2023-03-01T13:49:59;23.73;;;16.40;;
7517;SDS011;3800;48.922;9.444;2023-03-01T13:52:31;20.07;;;15.80;;
7517;SDS011;3800;48.922;9.444;2023-03-01T13:54:58;18.53;;;15.87;;
7517;SDS011;3800;48.922;9.444;2023-03-01T13:57:29;20.07;;;15.23;;
7517;SDS011;3800;48.922;9.444;2023-03-01T13:59:54;18.43;;;15.57;;
7517;SDS011;3800;48.922;9.444;2023-03-01T14:02:22;18.67;;;15.33;;
7517;SDS011;3800;48.922;9.444;2023-03-01T14:04:56;18.80;;;15.17;;
7517;SDS011;3800;48.922;9.444;2023-03-01T14:07:25;19.63;;;16.33;;
7517;SDS011;3800;48.922;9.444;2023-03-01T14:09:52;24.53;;;15.93;;
7517;SDS011;3800;48.922;9.444;2023-03-01T14:12:37;18.67;;;15.70;;
7517;SDS011;3800;48.922;9.444;2023-03-01T14:15:15;22.40;;;16.13;;
7517;SDS011;3800;48.922;9.444;2023-03-01T14:17:49;21.87;;;16.03;;
7517;SDS011;3800;48.922;9.444;2023-03-01T14:20:18;20.67;;;15.37;;
7517;SDS011;3800;48.922;9.444;2023-03-01T14:22:44;19.97;;;15.60;;
7517;SDS011;3800;48.922;9.444;2023-03-01T14:27:46;20.00;;;16.30;;
7517;SDS011;3800;48.922;9.444;2023-03-01T14:30:15;18.60;;;15.53;;
7517;SDS011;3800;48.922;9.444;2023-03-01T14:32:54;19.07;;;15.13;;
7517;SDS011;3800;48.922;9.444;2023-03-01T14:35:21;20.07;;;15.93;;
7517;SDS011;3800;48.922;9.444;2023-03-01T14:37:49;18.93;;;15.60;;
7517;SDS011;3800;48.922;9.444;2023-03-01T14:40:22;18.20;;;15.27;;
7517;SDS011;3800;48.922;9.444;2023-03-01T14:42:50;19.83;;;15.40;;
7517;SDS011;3800;48.922;9.444;2023-03-01T14:45:18;20.67;;;15.47;;
7517;SDS011;3800;48.922;9.444;2023-03-01T14:47:46;21.33;;;15.67;;
7517;SDS011;3800;48.922;9.444;2023-03-01T14:50:20;21.23;;;16.13;;
7517;SDS011;3800;48.922;9.444;2023-03-01T14:52:47;21.53;;;15.13;;
7517;SDS011;3800;48.922;9.444;2023-03-01T14:55:16;17.77;;;14.57;;
7517;SDS011;3800;48.922;9.444;2023-03-01T14:57:44;18.63;;;15.07;;
7517;SDS011;3800;48.922;9.444;2023-03-01T15:00:15;20.53;;;14.93;;
7517;SDS011;3800;48.922;9.444;2023-03-01T15:02:44;19.23;;;15.77;;
7517;SDS011;3800;48.922;9.444;2023-03-01T15:05:13;20.90;;;15.20;;
7517;SDS011;3800;48.922;9.444;2023-03-01T15:07:40;20.33;;;14.53;;
7517;SDS011;3800;48.922;9.444;2023-03-01T15:10:14;18.47;;;15.17;;
7517;SDS011;3800;48.922;9.444;2023-03-01T15:12:37;18.03;;;15.43;;
7517;SDS011;3800;48.922;9.444;2023-03-01T15:17:51;19.63;;;14.13;;
7517;SDS011;3800;48.922;9.444;2023-03-01T15:20:18;19.70;;;14.47;;
7517;SDS011;3800;48.922;9.444;2023-03-01T15:22:46;18.87;;;14.60;;
7517;SDS011;3800;48.922;9.444;2023-03-01T15:25:15;20.90;;;14.23;;
7517;SDS011;3800;48.922;9.444;2023-03-01T15:27:46;18.93;;;13.60;;
7517;SDS011;3800;48.922;9.444;2023-03-01T15:30:17;16.80;;;14.00;;
7517;SDS011;3800;48.922;9.444;2023-03-01T15:32:45;17.23;;;14.20;;
7517;SDS011;3800;48.922;9.444;2023-03-01T15:37:52;16.93;;;13.73;;
7517;SDS011;3800;48.922;9.444;2023-03-01T15:40:24;17.20;;;14.67;;